sensor_id;sensor_type;location;lat;lon;timestamp;P1;durP1;ratioP1;P2;durP2;ratioP2
23185;SDS011;11761;51.324;4.590;2023-03-24T00:00:45;7.72;;;3.60;;
23185;SDS011;11761;51.324;4.590;2023-03-24T00:03:11;6.97;;;3.33;;
23185;SDS011;11761;51.324;4.590;2023-03-24T00:05:37;6.85;;;3.47;;
23185;SDS011;11761;51.324;4.590;2023-03-24T00:08:04;4.78;;;2.90;;
23185;SDS011;11761;51.324;4.590;2023-03-24T00:10:30;7.68;;;3.47;;
23185;SDS011;11761;51.324;4.590;2023-03-24T00:12:58;8.20;;;3.88;;
23185;SDS011;11761;51.324;4.590;2023-03-24T00:15:25;6.40;;;3.40;;
23185;SDS011;11761;51.324;4.590;2023-03-24T00:17:51;8.05;;;3.50;;
23185;SDS011;11761;51.324;4.590;2023-03-24T00:20:20;4.40;;;3.10;;
23185;SDS011;11761;51.324;4.590;2023-03-24T00:22:48;6.85;;;3.30;;
23185;SDS011;11761;51.324;4.590;2023-03-24T00:25:21;5.60;;;3.00;;
23185;SDS011;11761;51.324;4.590;2023-03-24T00:27:48;5.22;;;3.00;;
23185;SDS011;11761;51.324;4.590;2023-03-24T00:30:16;5.53;;;3.17;;
23185;SDS011;11761;51.324;4.590;2023-03-24T00:32:43;9.38;;;3.20;;
23185;SDS011;11761;51.324;4.590;2023-03-24T00:35:11;6.15;;;3.47;;
23185;SDS011;11761;51.324;4.590;2023-03-24T00:37:39;6.25;;;3.63;;
23185;SDS011;11761;51.324;4.590;2023-03-24T00:40:10;6.60;;;3.20;;
23185;SDS011;11761;51.324;4.590;2023-03-24T00:42:39;6.32;;;3.22;;
23185;SDS011;11761;51.324;4.590;2023-03-24T00:45:11;7.35;;;3.42;;
23185;SDS011;11761;51.324;4.590;2023-03-24T00:47:39;8.73;;;3.95;;
23185;SDS011;11761;51.324;4.590;2023-03-24T00:50:07;5.78;;;3.50;;
23185;SDS011;11761;51.324;4.590;2023-03-24T00:52:36;5.63;;;3.47;;
23185;SDS011;11761;51.324;4.590;2023-03-24T00:55:09;7.45;;;2.92;;
23185;SDS011;11761;51.324;4.590;2023-03-24T00:57:40;6.55;;;3.22;;
23185;SDS011;11761;51.324;4.590;2023-03-24T01:00:14;8.27;;;3.80;;
23185;SDS011;11761;51.324;4.590;2023-03-24T01:02:46;8.05;;;3.80;;
23185;SDS011;11761;51.324;4.590;2023-03-24T01:05:13;7.40;;;3.40;;
23185;SDS011;11761;51.324;4.590;2023-03-24T01:07:42;6.82;;;3.63;;
23185;SDS011;11761;51.324;4.590;2023-03-24T01:10:10;6.85;;;3.38;;
23185;SDS011;11761;51.324;4.590;2023-03-24T01:12:37;7.65;;;3.65;;
23185;SDS011;11761;51.324;4.590;2023-03-24T01:15:04;7.63;;;3.67;;
23185;SDS011;11761;51.324;4.590;2023-03-24T01:17:33;5.90;;;3.47;;
23185;SDS011;11761;51.324;4.590;2023-03-24T01:19:59;6.97;;;3.67;;
23185;SDS011;11761;51.324;4.590;2023-03-24T01:22:31;6.75;;;3.55;;
23185;SDS011;11761;51.324;4.590;2023-03-24T01:25:02;7.15;;;3.92;;
23185;SDS011;11761;51.324;4.590;2023-03-24T01:27:29;6.47;;;3.70;;
23185;SDS011;11761;51.324;4.590;2023-03-24T01:29:59;7.45;;;3.97;;
23185;SDS011;11761;51.324;4.590;2023-03-24T01:32:26;9.52;;;4.32;;
23185;SDS011;11761;51.324;4.590;2023-03-24T01:34:53;8.85;;;4.05;;
23185;SDS011;11761;51.324;4.590;2023-03-24T01:37:19;8.95;;;4.03;;
23185;SDS011;11761;51.324;4.590;2023-03-24T01:39:48;8.55;;;4.15;;
23185;SDS011;11761;51.324;4.590;2023-03-24T01:42:16;10.02;;;4.20;;
23185;SDS011;11761;51.324;4.590;2023-03-24T01:44:45;8.68;;;4.32;;
23185;SDS011;11761;51.324;4.590;2023-03-24T01:47:13;8.18;;;4.20;;
23185;SDS011;11761;51.324;4.590;2023-03-24T01:49:41;9.52;;;4.57;;
23185;SDS011;11761;51.324;4.590;2023-03-24T01:52:20;9.07;;;4.97;;
23185;SDS011;11761;51.324;4.590;2023-03-24T01:54:50;9.95;;;5.10;;
23185;SDS011;11761;51.324;4.590;2023-03-24T01:57:21;7.25;;;4.40;;
23185;SDS011;11761;51.324;4.590;2023-03-24T01:59:57;8.95;;;4.05;;
23185;SDS011;11761;51.324;4.590;2023-03-24T02:02:26;8.20;;;4.25;;
23185;SDS011;11761;51.324;4.590;2023-03-24T02:04:53;8.23;;;4.50;;
23185;SDS011;11761;51.324;4.590;2023-03-24T02:10:08;9.05;;;4.15;;
23185;SDS011;11761;51.324;4.590;2023-03-24T02:12:38;7.55;;;4.57;;
23185;SDS011;11761;51.324;4.590;2023-03-24T02:15:06;6.82;;;5.28;;
23185;SDS011;11761;51.324;4.590;2023-03-24T02:28:52;6.20;;;2.53;;
23185;SDS011;11761;51.324;4.590;2023-03-24T02:31:41;4.00;;;2.20;;
23185;SDS011;11761;51.324;4.590;2023-03-24T02:46:31;4.63;;;1.80;;
23185;SDS011;11761;51.324;4.590;2023-03-24T02:48:58;4.82;;;1.55;;
23185;SDS011;11761;51.324;4.590;2023-03-24T02:54:39;3.95;;;1.10;;
23185;SDS011;11761;51.324;4.590;2023-03-24T02:59:59;2.90;;;1.50;;
23185;SDS011;11761;51.324;4.590;2023-03-24T03:02:45;4.80;;;1.70;;
23185;SDS011;11761;51.324;4.590;2023-03-24T03:05:38;5.40;;;1.60;;
23185;SDS011;11761;51.324;4.590;2023-03-24T03:08:28;5.40;;;1.60;;
23185;SDS011;11761;51.324;4.590;2023-03-24T03:10:58;8.57;;;1.83;;
23185;SDS011;11761;51.324;4.590;2023-03-24T03:13:30;4.95;;;1.45;;
23185;SDS011;11761;51.324;4.590;2023-03-24T03:16:31;6.47;;;1.40;;
23185;SDS011;11761;51.324;4.590;2023-03-24T03:19:14;6.75;;;1.40;;
23185;SDS011;11761;51.324;4.590;2023-03-24T03:21:44;5.68;;;1.65;;
23185;SDS011;11761;51.324;4.590;2023-03-24T03:24:35;4.97;;;1.40;;
23185;SDS011;11761;51.324;4.590;2023-03-24T03:27:06;6.00;;;1.45;;
23185;SDS011;11761;51.324;4.590;2023-03-24T03:29:40;4.90;;;1.50;;
23185;SDS011;11761;51.324;4.590;2023-03-24T03:32:21;6.32;;;2.10;;
23185;SDS011;11761;51.324;4.590;2023-03-24T03:34:58;9.65;;;2.80;;
23185;SDS011;11761;51.324;4.590;2023-03-24T03:37:27;8.63;;;2.60;;
23185;SDS011;11761;51.324;4.590;2023-03-24T03:39:58;8.90;;;2.53;;
23185;SDS011;11761;51.324;4.590;2023-03-24T03:42:37;7.43;;;2.15;;
23185;SDS011;11761;51.324;4.590;2023-03-24T03:45:04;7.40;;;2.30;;
23185;SDS011;11761;51.324;4.590;2023-03-24T03:47:33;5.53;;;2.13;;
23185;SDS011;11761;51.324;4.590;2023-03-24T03:50:00;7.97;;;2.28;;
23185;SDS011;11761;51.324;4.590;2023-03-24T03:52:27;6.18;;;2.28;;
23185;SDS011;11761;51.324;4.590;2023-03-24T03:54:53;9.40;;;2.47;;
23185;SDS011;11761;51.324;4.590;2023-03-24T03:57:20;7.85;;;2.30;;
23185;SDS011;11761;51.324;4.590;2023-03-24T03:59:46;12.52;;;2.90;;
23185;SDS011;11761;51.324;4.590;2023-03-24T04:05:20;8.00;;;2.75;;
23185;SDS011;11761;51.324;4.590;2023-03-24T04:08:07;9.23;;;2.50;;
23185;SDS011;11761;51.324;4.590;2023-03-24T04:13:28;7.47;;;2.53;;
23185;SDS011;11761;51.324;4.590;2023-03-24T04:18:49;9.45;;;2.40;;
23185;SDS011;11761;51.324;4.590;2023-03-24T04:21:39;10.40;;;2.22;;
23185;SDS011;11761;51.324;4.590;2023-03-24T04:26:53;7.70;;;2.28;;
23185;SDS011;11761;51.324;4.590;2023-03-24T04:32:34;11.73;;;2.47;;
23185;SDS011;11761;51.324;4.590;2023-03-24T04:35:48;9.93;;;2.22;;
23185;SDS011;11761;51.324;4.590;2023-03-24T04:38:10;10.60;;;2.03;;
23185;SDS011;11761;51.324;4.590;2023-03-24T04:40:43;13.18;;;2.22;;
23185;SDS011;11761;51.324;4.590;2023-03-24T04:43:14;14.40;;;2.17;;
23185;SDS011;11761;51.324;4.590;2023-03-24T04:45:43;11.40;;;1.80;;
23185;SDS011;11761;51.324;4.590;2023-03-24T04:48:15;7.30;;;2.00;;
23185;SDS011;11761;51.324;4.590;2023-03-24T04:50:48;10.68;;;2.38;;
23185;SDS011;11761;51.324;4.590;2023-03-24T04:53:20;10.35;;;1.98;;
23185;SDS011;11761;51.324;4.590;2023-03-24T04:58:41;11.80;;;2.00;;
23185;SDS011;11761;51.324;4.590;2023-03-24T05:01:07;14.10;;;1.75;;
23185;SDS011;11761;51.324;4.590;2023-03-24T05:03:33;8.45;;;1.85;;
23185;SDS011;11761;51.324;4.590;2023-03-24T05:06:02;15.55;;;2.20;;
23185;SDS011;11761;51.324;4.590;2023-03-24T05:08:30;8.93;;;1.95;;
23185;SDS011;11761;51.324;4.590;2023-03-24T05:10:56;9.32;;;2.60;;
23185;SDS011;11761;51.324;4.590;2023-03-24T05:13:22;13.07;;;2.17;;
23185;SDS011;11761;51.324;4.590;2023-03-24T05:15:48;15.80;;;2.65;;
23185;SDS011;11761;51.324;4.590;2023-03-24T05:18:16;13.55;;;2.72;;
23185;SDS011;11761;51.324;4.590;2023-03-24T05:20:42;11.75;;;2.22;;
23185;SDS011;11761;51.324;4.590;2023-03-24T05:23:08;14.07;;;2.83;;
23185;SDS011;11761;51.324;4.590;2023-03-24T05:25:34;9.48;;;1.95;;
23185;SDS011;11761;51.324;4.590;2023-03-24T05:28:00;9.50;;;2.15;;
23185;SDS011;11761;51.324;4.590;2023-03-24T05:30:27;10.63;;;1.90;;
23185;SDS011;11761;51.324;4.590;2023-03-24T05:32:53;13.48;;;2.75;;
23185;SDS011;11761;51.324;4.590;2023-03-24T05:35:19;19.75;;;3.17;;
23185;SDS011;11761;51.324;4.590;2023-03-24T05:37:45;10.43;;;1.92;;
23185;SDS011;11761;51.324;4.590;2023-03-24T05:40:11;10.20;;;2.10;;
23185;SDS011;11761;51.324;4.590;2023-03-24T05:42:37;16.40;;;2.53;;
23185;SDS011;11761;51.324;4.590;2023-03-24T05:45:04;11.73;;;2.40;;
23185;SDS011;11761;51.324;4.590;2023-03-24T05:47:30;13.40;;;2.05;;
23185;SDS011;11761;51.324;4.590;2023-03-24T05:49:59;24.25;;;2.65;;
23185;SDS011;11761;51.324;4.590;2023-03-24T05:52:25;12.05;;;2.63;;
23185;SDS011;11761;51.324;4.590;2023-03-24T05:54:51;11.20;;;2.55;;
23185;SDS011;11761;51.324;4.590;2023-03-24T05:57:17;15.75;;;2.78;;
23185;SDS011;11761;51.324;4.590;2023-03-24T05:59:45;9.75;;;2.30;;
23185;SDS011;11761;51.324;4.590;2023-03-24T06:02:12;17.05;;;2.42;;
23185;SDS011;11761;51.324;4.590;2023-03-24T06:04:38;9.73;;;2.33;;
23185;SDS011;11761;51.324;4.590;2023-03-24T06:07:10;12.87;;;2.27;;
23185;SDS011;11761;51.324;4.590;2023-03-24T06:09:37;9.68;;;2.60;;
23185;SDS011;11761;51.324;4.590;2023-03-24T06:12:07;10.27;;;1.92;;
23185;SDS011;11761;51.324;4.590;2023-03-24T06:14:34;12.63;;;2.47;;
23185;SDS011;11761;51.324;4.590;2023-03-24T06:17:00;16.52;;;2.90;;
23185;SDS011;11761;51.324;4.590;2023-03-24T06:19:26;14.73;;;2.42;;
23185;SDS011;11761;51.324;4.590;2023-03-24T06:21:55;10.07;;;1.83;;
23185;SDS011;11761;51.324;4.590;2023-03-24T06:24:27;12.95;;;2.70;;
23185;SDS011;11761;51.324;4.590;2023-03-24T06:26:54;15.15;;;2.50;;
23185;SDS011;11761;51.324;4.590;2023-03-24T06:29:27;12.15;;;2.30;;
23185;SDS011;11761;51.324;4.590;2023-03-24T06:31:55;13.48;;;2.72;;
23185;SDS011;11761;51.324;4.590;2023-03-24T06:34:21;13.63;;;2.70;;
23185;SDS011;11761;51.324;4.590;2023-03-24T06:36:49;13.82;;;2.42;;
23185;SDS011;11761;51.324;4.590;2023-03-24T06:39:16;10.25;;;2.42;;
23185;SDS011;11761;51.324;4.590;2023-03-24T06:41:43;11.77;;;2.60;;
23185;SDS011;11761;51.324;4.590;2023-03-24T06:44:09;8.68;;;2.20;;
23185;SDS011;11761;51.324;4.590;2023-03-24T06:46:36;14.05;;;2.80;;
23185;SDS011;11761;51.324;4.590;2023-03-24T06:49:02;14.38;;;2.42;;
23185;SDS011;11761;51.324;4.590;2023-03-24T06:51:29;14.40;;;2.35;;
23185;SDS011;11761;51.324;4.590;2023-03-24T06:53:55;11.00;;;2.17;;
23185;SDS011;11761;51.324;4.590;2023-03-24T06:56:21;12.60;;;2.33;;
23185;SDS011;11761;51.324;4.590;2023-03-24T06:58:47;12.43;;;1.98;;
23185;SDS011;11761;51.324;4.590;2023-03-24T07:01:14;10.27;;;2.00;;
23185;SDS011;11761;51.324;4.590;2023-03-24T07:03:40;14.82;;;2.30;;
23185;SDS011;11761;51.324;4.590;2023-03-24T07:06:07;8.00;;;2.35;;
23185;SDS011;11761;51.324;4.590;2023-03-24T07:08:34;6.68;;;2.25;;
23185;SDS011;11761;51.324;4.590;2023-03-24T07:11:00;14.55;;;2.55;;
23185;SDS011;11761;51.324;4.590;2023-03-24T07:13:27;11.80;;;2.45;;
23185;SDS011;11761;51.324;4.590;2023-03-24T07:15:53;9.35;;;2.00;;
23185;SDS011;11761;51.324;4.590;2023-03-24T07:18:19;8.07;;;2.00;;
23185;SDS011;11761;51.324;4.590;2023-03-24T07:20:46;11.25;;;1.92;;
23185;SDS011;11761;51.324;4.590;2023-03-24T07:23:12;13.52;;;2.70;;
23185;SDS011;11761;51.324;4.590;2023-03-24T07:25:39;10.95;;;1.83;;
23185;SDS011;11761;51.324;4.590;2023-03-24T07:28:05;10.45;;;1.98;;
23185;SDS011;11761;51.324;4.590;2023-03-24T07:30:32;11.93;;;2.00;;
23185;SDS011;11761;51.324;4.590;2023-03-24T07:33:00;8.80;;;1.75;;
23185;SDS011;11761;51.324;4.590;2023-03-24T07:35:30;9.00;;;1.92;;
23185;SDS011;11761;51.324;4.590;2023-03-24T07:37:58;9.48;;;1.80;;
23185;SDS011;11761;51.324;4.590;2023-03-24T07:40:25;13.10;;;2.20;;
23185;SDS011;11761;51.324;4.590;2023-03-24T07:42:51;11.15;;;1.80;;
23185;SDS011;11761;51.324;4.590;2023-03-24T07:45:18;9.40;;;1.92;;
23185;SDS011;11761;51.324;4.590;2023-03-24T07:47:44;10.63;;;2.47;;
23185;SDS011;11761;51.324;4.590;2023-03-24T07:50:12;13.05;;;2.30;;
23185;SDS011;11761;51.324;4.590;2023-03-24T07:52:39;10.98;;;1.90;;
23185;SDS011;11761;51.324;4.590;2023-03-24T07:55:07;10.23;;;2.10;;
23185;SDS011;11761;51.324;4.590;2023-03-24T07:57:36;7.85;;;2.17;;
23185;SDS011;11761;51.324;4.590;2023-03-24T08:00:05;13.32;;;2.00;;
23185;SDS011;11761;51.324;4.590;2023-03-24T08:02:39;9.30;;;2.38;;
23185;SDS011;11761;51.324;4.590;2023-03-24T08:05:07;9.07;;;2.03;;
23185;SDS011;11761;51.324;4.590;2023-03-24T08:07:35;13.55;;;2.10;;
23185;SDS011;11761;51.324;4.590;2023-03-24T08:10:01;12.10;;;2.17;;
23185;SDS011;11761;51.324;4.590;2023-03-24T08:12:30;13.82;;;2.35;;
23185;SDS011;11761;51.324;4.590;2023-03-24T08:14:56;12.43;;;2.17;;
23185;SDS011;11761;51.324;4.590;2023-03-24T08:17:22;11.85;;;2.35;;
23185;SDS011;11761;51.324;4.590;2023-03-24T08:19:49;13.07;;;1.65;;
23185;SDS011;11761;51.324;4.590;2023-03-24T08:22:14;9.07;;;1.75;;
23185;SDS011;11761;51.324;4.590;2023-03-24T08:24:41;10.20;;;1.95;;
23185;SDS011;11761;51.324;4.590;2023-03-24T08:27:07;9.70;;;2.20;;
23185;SDS011;11761;51.324;4.590;2023-03-24T08:29:33;9.90;;;1.95;;
23185;SDS011;11761;51.324;4.590;2023-03-24T08:31:59;11.98;;;2.45;;
23185;SDS011;11761;51.324;4.590;2023-03-24T08:34:26;6.68;;;1.63;;
23185;SDS011;11761;51.324;4.590;2023-03-24T08:36:52;10.20;;;2.05;;
23185;SDS011;11761;51.324;4.590;2023-03-24T08:39:18;11.82;;;2.30;;
23185;SDS011;11761;51.324;4.590;2023-03-24T08:41:45;12.73;;;2.47;;
23185;SDS011;11761;51.324;4.590;2023-03-24T08:44:11;11.90;;;2.05;;
23185;SDS011;11761;51.324;4.590;2023-03-24T08:46:38;12.38;;;2.53;;
23185;SDS011;11761;51.324;4.590;2023-03-24T08:49:05;10.02;;;2.10;;
23185;SDS011;11761;51.324;4.590;2023-03-24T08:51:31;15.10;;;2.28;;
23185;SDS011;11761;51.324;4.590;2023-03-24T08:53:57;10.90;;;2.20;;
23185;SDS011;11761;51.324;4.590;2023-03-24T08:56:23;7.07;;;1.58;;
23185;SDS011;11761;51.324;4.590;2023-03-24T08:58:50;11.40;;;2.13;;
23185;SDS011;11761;51.324;4.590;2023-03-24T09:01:18;9.82;;;2.20;;
23185;SDS011;11761;51.324;4.590;2023-03-24T09:03:45;9.18;;;1.85;;
23185;SDS011;11761;51.324;4.590;2023-03-24T09:06:11;7.68;;;2.03;;
23185;SDS011;11761;51.324;4.590;2023-03-24T09:08:38;8.50;;;1.75;;
23185;SDS011;11761;51.324;4.590;2023-03-24T09:11:05;6.25;;;1.90;;
23185;SDS011;11761;51.324;4.590;2023-03-24T09:13:32;12.10;;;1.77;;
23185;SDS011;11761;51.324;4.590;2023-03-24T09:15:59;6.40;;;1.67;;
23185;SDS011;11761;51.324;4.590;2023-03-24T09:18:26;11.82;;;2.10;;
23185;SDS011;11761;51.324;4.590;2023-03-24T09:20:53;10.35;;;1.92;;
23185;SDS011;11761;51.324;4.590;2023-03-24T09:23:19;8.63;;;1.65;;
23185;SDS011;11761;51.324;4.590;2023-03-24T09:25:52;10.32;;;2.40;;
23185;SDS011;11761;51.324;4.590;2023-03-24T09:28:18;9.68;;;2.05;;
23185;SDS011;11761;51.324;4.590;2023-03-24T09:30:45;7.95;;;2.10;;
23185;SDS011;11761;51.324;4.590;2023-03-24T09:33:12;9.85;;;2.17;;
23185;SDS011;11761;51.324;4.590;2023-03-24T09:35:38;12.15;;;2.20;;
23185;SDS011;11761;51.324;4.590;2023-03-24T09:38:04;8.02;;;1.85;;
23185;SDS011;11761;51.324;4.590;2023-03-24T09:40:32;8.23;;;2.00;;
23185;SDS011;11761;51.324;4.590;2023-03-24T09:43:11;12.25;;;1.80;;
23185;SDS011;11761;51.324;4.590;2023-03-24T09:45:52;10.43;;;2.00;;
23185;SDS011;11761;51.324;4.590;2023-03-24T09:56:25;8.43;;;2.25;;
23185;SDS011;11761;51.324;4.590;2023-03-24T09:59:04;8.02;;;2.00;;
23185;SDS011;11761;51.324;4.590;2023-03-24T10:01:32;8.77;;;2.25;;
23185;SDS011;11761;51.324;4.590;2023-03-24T10:03:59;8.65;;;2.08;;
23185;SDS011;11761;51.324;4.590;2023-03-24T10:06:26;9.35;;;2.03;;
23185;SDS011;11761;51.324;4.590;2023-03-24T10:09:07;10.45;;;2.35;;
23185;SDS011;11761;51.324;4.590;2023-03-24T10:28:13;9.68;;;1.63;;
23185;SDS011;11761;51.324;4.590;2023-03-24T10:30:46;7.60;;;1.85;;
23185;SDS011;11761;51.324;4.590;2023-03-24T10:33:14;9.38;;;2.20;;
23185;SDS011;11761;51.324;4.590;2023-03-24T10:35:42;6.25;;;1.90;;
23185;SDS011;11761;51.324;4.590;2023-03-24T10:38:23;7.18;;;1.90;;
23185;SDS011;11761;51.324;4.590;2023-03-24T10:40:49;6.90;;;1.63;;
23185;SDS011;11761;51.324;4.590;2023-03-24T10:43:16;8.57;;;1.80;;
23185;SDS011;11761;51.324;4.590;2023-03-24T10:45:51;7.82;;;1.75;;
23185;SDS011;11761;51.324;4.590;2023-03-24T10:51:10;7.20;;;2.05;;
23185;SDS011;11761;51.324;4.590;2023-03-24T10:53:43;9.88;;;1.90;;
23185;SDS011;11761;51.324;4.590;2023-03-24T10:56:17;10.25;;;2.35;;
23185;SDS011;11761;51.324;4.590;2023-03-24T10:59:01;9.10;;;2.30;;
23185;SDS011;11761;51.324;4.590;2023-03-24T11:01:28;11.68;;;3.10;;
23185;SDS011;11761;51.324;4.590;2023-03-24T11:03:58;10.63;;;2.92;;
23185;SDS011;11761;51.324;4.590;2023-03-24T11:06:28;14.20;;;2.67;;
23185;SDS011;11761;51.324;4.590;2023-03-24T11:11:47;8.98;;;2.58;;
23185;SDS011;11761;51.324;4.590;2023-03-24T11:14:20;12.18;;;2.33;;
23185;SDS011;11761;51.324;4.590;2023-03-24T11:16:52;10.63;;;2.17;;
23185;SDS011;11761;51.324;4.590;2023-03-24T11:19:49;4.90;;;2.08;;
23185;SDS011;11761;51.324;4.590;2023-03-24T11:22:19;8.80;;;2.25;;
23185;SDS011;11761;51.324;4.590;2023-03-24T11:24:49;6.50;;;1.70;;
23185;SDS011;11761;51.324;4.590;2023-03-24T11:27:17;4.88;;;1.70;;
23185;SDS011;11761;51.324;4.590;2023-03-24T11:29:44;5.32;;;1.60;;
23185;SDS011;11761;51.324;4.590;2023-03-24T11:32:21;6.70;;;1.70;;
23185;SDS011;11761;51.324;4.590;2023-03-24T11:35:02;5.88;;;1.40;;
23185;SDS011;11761;51.324;4.590;2023-03-24T11:37:33;4.28;;;1.30;;
23185;SDS011;11761;51.324;4.590;2023-03-24T11:42:50;4.32;;;1.10;;
23185;SDS011;11761;51.324;4.590;2023-03-24T11:47:52;7.07;;;1.55;;
23185;SDS011;11761;51.324;4.590;2023-03-24T11:50:38;5.60;;;1.48;;
23185;SDS011;11761;51.324;4.590;2023-03-24T11:58:29;4.68;;;1.50;;
23185;SDS011;11761;51.324;4.590;2023-03-24T12:01:15;6.00;;;1.95;;
23185;SDS011;11761;51.324;4.590;2023-03-24T12:23:28;5.88;;;1.77;;
23185;SDS011;11761;51.324;4.590;2023-03-24T12:26:12;6.30;;;2.10;;
23185;SDS011;11761;51.324;4.590;2023-03-24T12:37:06;6.50;;;1.80;;
23185;SDS011;11761;51.324;4.590;2023-03-24T12:42:22;7.15;;;1.80;;
23185;SDS011;11761;51.324;4.590;2023-03-24T12:44:56;7.03;;;2.25;;
23185;SDS011;11761;51.324;4.590;2023-03-24T12:55:53;6.93;;;2.00;;
23185;SDS011;11761;51.324;4.590;2023-03-24T12:58:29;8.05;;;2.10;;
23185;SDS011;11761;51.324;4.590;2023-03-24T13:01:02;8.02;;;1.85;;
23185;SDS011;11761;51.324;4.590;2023-03-24T13:03:40;10.77;;;2.10;;
23185;SDS011;11761;51.324;4.590;2023-03-24T13:09:04;5.65;;;1.70;;
23185;SDS011;11761;51.324;4.590;2023-03-24T13:14:21;6.95;;;1.80;;
23185;SDS011;11761;51.324;4.590;2023-03-24T13:17:11;6.63;;;1.58;;
23185;SDS011;11761;51.324;4.590;2023-03-24T13:19:45;8.00;;;2.00;;
23185;SDS011;11761;51.324;4.590;2023-03-24T13:22:15;6.05;;;1.90;;
23185;SDS011;11761;51.324;4.590;2023-03-24T13:24:44;6.93;;;1.95;;
23185;SDS011;11761;51.324;4.590;2023-03-24T13:29:50;9.52;;;2.28;;
23185;SDS011;11761;51.324;4.590;2023-03-24T13:32:51;6.88;;;2.17;;
23185;SDS011;11761;51.324;4.590;2023-03-24T13:38:31;9.73;;;2.70;;
23185;SDS011;11761;51.324;4.590;2023-03-24T13:41:16;7.70;;;2.20;;
23185;SDS011;11761;51.324;4.590;2023-03-24T13:43:49;7.80;;;2.33;;
23185;SDS011;11761;51.324;4.590;2023-03-24T13:46:23;6.05;;;2.30;;
23185;SDS011;11761;51.324;4.590;2023-03-24T13:48:50;9.35;;;2.20;;
23185;SDS011;11761;51.324;4.590;2023-03-24T13:53:54;10.27;;;2.20;;
23185;SDS011;11761;51.324;4.590;2023-03-24T13:57:00;5.47;;;2.15;;
23185;SDS011;11761;51.324;4.590;2023-03-24T14:05:09;6.32;;;1.90;;
23185;SDS011;11761;51.324;4.590;2023-03-24T14:07:49;6.38;;;1.90;;
23185;SDS011;11761;51.324;4.590;2023-03-24T14:10:38;6.10;;;1.45;;
23185;SDS011;11761;51.324;4.590;2023-03-24T14:20:59;5.32;;;1.20;;
23185;SDS011;11761;51.324;4.590;2023-03-24T14:26:05;9.38;;;1.63;;
23185;SDS011;11761;51.324;4.590;2023-03-24T14:28:36;6.43;;;1.23;;
23185;SDS011;11761;51.324;4.590;2023-03-24T14:38:55;6.05;;;1.35;;
23185;SDS011;11761;51.324;4.590;2023-03-24T14:41:29;9.82;;;1.10;;
23185;SDS011;11761;51.324;4.590;2023-03-24T14:44:03;6.05;;;1.23;;
23185;SDS011;11761;51.324;4.590;2023-03-24T14:49:36;6.18;;;1.10;;
23185;SDS011;11761;51.324;4.590;2023-03-24T14:57:15;8.65;;;1.17;;
23185;SDS011;11761;51.324;4.590;2023-03-24T15:02:39;2.88;;;0.80;;
23185;SDS011;11761;51.324;4.590;2023-03-24T15:07:42;4.50;;;1.10;;
23185;SDS011;11761;51.324;4.590;2023-03-24T15:10:13;3.92;;;0.98;;
23185;SDS011;11761;51.324;4.590;2023-03-24T15:12:46;5.47;;;1.00;;
23185;SDS011;11761;51.324;4.590;2023-03-24T15:17:42;4.03;;;1.08;;
23185;SDS011;11761;51.324;4.590;2023-03-24T15:20:28;6.65;;;1.35;;
23185;SDS011;11761;51.324;4.590;2023-03-24T15:23:06;5.30;;;1.05;;
23185;SDS011;11761;51.324;4.590;2023-03-24T15:25:33;7.35;;;1.10;;
23185;SDS011;11761;51.324;4.590;2023-03-24T15:27:59;3.22;;;1.40;;
23185;SDS011;11761;51.324;4.590;2023-03-24T15:30:25;6.35;;;1.17;;
23185;SDS011;11761;51.324;4.590;2023-03-24T15:32:52;4.88;;;1.25;;
23185;SDS011;11761;51.324;4.590;2023-03-24T15:35:20;5.03;;;1.30;;
23185;SDS011;11761;51.324;4.590;2023-03-24T15:37:51;5.40;;;1.02;;
23185;SDS011;11761;51.324;4.590;2023-03-24T15:42:57;7.23;;;1.50;;
23185;SDS011;11761;51.324;4.590;2023-03-24T15:45:26;9.10;;;1.45;;
23185;SDS011;11761;51.324;4.590;2023-03-24T15:48:06;6.30;;;1.10;;
23185;SDS011;11761;51.324;4.590;2023-03-24T15:50:38;6.65;;;1.85;;
23185;SDS011;11761;51.324;4.590;2023-03-24T15:53:19;5.07;;;1.50;;
23185;SDS011;11761;51.324;4.590;2023-03-24T15:56:03;9.73;;;1.90;;
23185;SDS011;11761;51.324;4.590;2023-03-24T15:58:44;5.60;;;1.75;;
23185;SDS011;11761;51.324;4.590;2023-03-24T16:01:11;4.78;;;1.20;;
23185;SDS011;11761;51.324;4.590;2023-03-24T16:03:41;8.20;;;1.73;;
23185;SDS011;11761;51.324;4.590;2023-03-24T16:06:13;6.72;;;1.88;;
23185;SDS011;11761;51.324;4.590;2023-03-24T16:08:40;10.35;;;1.77;;
23185;SDS011;11761;51.324;4.590;2023-03-24T16:11:09;11.57;;;1.55;;
23185;SDS011;11761;51.324;4.590;2023-03-24T16:13:40;6.22;;;1.75;;
23185;SDS011;11761;51.324;4.590;2023-03-24T16:18:39;4.80;;;1.63;;
23185;SDS011;11761;51.324;4.590;2023-03-24T16:23:46;5.15;;;1.60;;
23185;SDS011;11761;51.324;4.590;2023-03-24T16:26:14;6.78;;;2.17;;
23185;SDS011;11761;51.324;4.590;2023-03-24T16:28:41;8.80;;;2.10;;
23185;SDS011;11761;51.324;4.590;2023-03-24T16:31:20;5.72;;;1.90;;
23185;SDS011;11761;51.324;4.590;2023-03-24T16:33:49;6.28;;;1.98;;
23185;SDS011;11761;51.324;4.590;2023-03-24T16:36:19;8.73;;;2.47;;
23185;SDS011;11761;51.324;4.590;2023-03-24T16:41:18;7.65;;;1.58;;
23185;SDS011;11761;51.324;4.590;2023-03-24T16:43:46;5.82;;;1.98;;
23185;SDS011;11761;51.324;4.590;2023-03-24T16:46:32;7.32;;;1.25;;
23185;SDS011;11761;51.324;4.590;2023-03-24T16:49:03;4.35;;;1.10;;
23185;SDS011;11761;51.324;4.590;2023-03-24T16:51:31;9.40;;;1.50;;
23185;SDS011;11761;51.324;4.590;2023-03-24T16:53:57;6.45;;;1.40;;
23185;SDS011;11761;51.324;4.590;2023-03-24T16:56:23;6.47;;;1.17;;
23185;SDS011;11761;51.324;4.590;2023-03-24T16:58:50;6.78;;;1.33;;
23185;SDS011;11761;51.324;4.590;2023-03-24T17:01:19;5.43;;;1.20;;
23185;SDS011;11761;51.324;4.590;2023-03-24T17:03:55;6.35;;;1.38;;
23185;SDS011;11761;51.324;4.590;2023-03-24T17:06:23;4.88;;;1.38;;
23185;SDS011;11761;51.324;4.590;2023-03-24T17:08:51;6.13;;;1.50;;
23185;SDS011;11761;51.324;4.590;2023-03-24T17:11:19;8.00;;;2.00;;
23185;SDS011;11761;51.324;4.590;2023-03-24T17:13:52;7.78;;;1.60;;
23185;SDS011;11761;51.324;4.590;2023-03-24T17:16:22;6.40;;;1.73;;
23185;SDS011;11761;51.324;4.590;2023-03-24T17:18:51;4.95;;;1.60;;
23185;SDS011;11761;51.324;4.590;2023-03-24T17:21:17;6.07;;;1.63;;
23185;SDS011;11761;51.324;4.590;2023-03-24T17:23:44;8.38;;;1.55;;
23185;SDS011;11761;51.324;4.590;2023-03-24T17:26:14;5.05;;;1.92;;
23185;SDS011;11761;51.324;4.590;2023-03-24T17:28:41;4.85;;;1.48;;
23185;SDS011;11761;51.324;4.590;2023-03-24T17:31:08;6.13;;;1.85;;
23185;SDS011;11761;51.324;4.590;2023-03-24T17:33:34;5.13;;;1.70;;
23185;SDS011;11761;51.324;4.590;2023-03-24T17:36:01;5.97;;;2.08;;
23185;SDS011;11761;51.324;4.590;2023-03-24T17:38:27;9.57;;;2.00;;
23185;SDS011;11761;51.324;4.590;2023-03-24T17:41:00;6.68;;;2.17;;
23185;SDS011;11761;51.324;4.590;2023-03-24T17:43:28;7.63;;;2.20;;
23185;SDS011;11761;51.324;4.590;2023-03-24T17:45:55;7.00;;;1.95;;
23185;SDS011;11761;51.324;4.590;2023-03-24T17:48:22;5.97;;;1.90;;
23185;SDS011;11761;51.324;4.590;2023-03-24T17:50:48;7.93;;;2.50;;
23185;SDS011;11761;51.324;4.590;2023-03-24T17:53:14;7.93;;;2.33;;
23185;SDS011;11761;51.324;4.590;2023-03-24T17:55:41;6.30;;;2.03;;
23185;SDS011;11761;51.324;4.590;2023-03-24T17:58:07;6.80;;;1.88;;
23185;SDS011;11761;51.324;4.590;2023-03-24T18:00:34;5.07;;;1.80;;
23185;SDS011;11761;51.324;4.590;2023-03-24T18:03:02;5.05;;;1.50;;
23185;SDS011;11761;51.324;4.590;2023-03-24T18:05:28;8.70;;;1.90;;
23185;SDS011;11761;51.324;4.590;2023-03-24T18:07:54;6.05;;;1.88;;
23185;SDS011;11761;51.324;4.590;2023-03-24T18:10:21;5.85;;;1.88;;
23185;SDS011;11761;51.324;4.590;2023-03-24T18:12:47;8.70;;;2.13;;
23185;SDS011;11761;51.324;4.590;2023-03-24T18:15:14;5.60;;;1.95;;